Hit Tracker is now ESPN Home Run Tracker! Hit Tracker founder Greg Rybarczyk is now collaborating with the ESPN Stats & Information Group to continue tracking all MLB home runs, and helping baseball fans know "How Far It Really Went!™" Please credit any information on this site to ESPN Stats & Information Group. For more information and analysis on home runs, please contact founder Greg Rybarczyk. E-Mail ESPN Home Run Tracker
Main Page | Ballparks | Park Overlays | Glossary | Highlight Homers | Feedback | Bio | 3 Types of HR's | AAA Home Run Derby Last Updated: August 19, 2017, 10:01 pm PST
If you want to know "How Far It Really Went!", then you've come to the right place! Welcome to the ESPN Home Run Tracker, where you can find accurate, transparently verifiable distances for every home run hit in MLB games. Please also check out the ESPN MLB Scoreboard throughout the 2017 season! Contact us at grybar@hittrackeronline.com.
Season:
Ballpark detail for Oakland-Alameda County Coliseum
Ballpark # of Home Runs HR per game Avg.
True
Distance
Avg.
Speed
Off
Bat
Avg.
Std.
Dist.
Oakland-Alameda County Coliseum 178 2.74 401.4 103.9 401.4

Scatter Plot of Home Runs Oakland-Alameda County Coliseum
 Overlay Ballpark:
Without range rings   With range rings

2017 Season Home Runs for Oakland-Alameda County Coliseum
Click headers to sort
Date ^ Video Path Hitter Hitter
Team
Pitcher Pitcher
Team
INN Ballpark Type/
Luck
True
Dist.
Speed
Off
Bat
Elev.
Angle
Horiz.
Angle
Apex Impact Due To: Std.
Dist.
#
Parks
Wind Temp. Alt.
08/16/17 Video View Semien, Marcus OAK Duffy, Danny KC 3 Oakland-Alam... JE 380 98.8 30.1 108.6 91 0 1 0 378 24
08/16/17 Video View Cain, Lorenzo KC Blackburn, Paul OAK 4 Oakland-Alam... PL 413 101.3 28.9 90.0 103 0 1 0 412 21
08/16/17 Video View Chapman, Matt OAK Maurer, Brandon KC 8 Oakland-Alam... PL 417 102.4 29.0 95.5 104 0 1 0 416 27
08/15/17 Video View Joyce, Matt OAK Hammel, Jason KC 1 Oakland-Alam... PL 397 102.6 30.8 71.6 105 0 -1 0 399 30
08/15/17 Video View Olson, Matt OAK Hammel, Jason KC 2 Oakland-Alam... JE 377 98.0 28.6 75.5 85 0 -1 0 378 12
08/15/17 Video View Davis, Khris OAK Hammel, Jason KC 3 Oakland-Alam... PL 421 109.4 21.5 98.4 68 0 0 0 421 30
08/15/17 Video View Butera, Drew KC Casilla, Santiago OAK 8 Oakland-Alam... PL 355 100.8 37.9 116.9 132 0 -3 0 358 30
08/15/17 Video View Hosmer, Eric KC Treinen, Blake OAK 8 Oakland-Alam... PL 408 104.1 31.0 105.6 113 0 -2 0 410 30
08/15/17 Video View Moustakas, Mike KC Treinen, Blake OAK 8 Oakland-Alam... ND 423 105.4 30.8 80.0 121 0 -2 0 424 29
08/14/17 Video View Gallagher, Cam KC Cotton, Jharel OAK 6 Oakland-Alam... PL 353 97.9 29.2 122.0 74 0 -1 0 354 26
08/13/17 Video View Chapman, Matt OAK Hellickson, Jeremy BAL 4 Oakland-Alam... JE 355 105.5 22.9 127.3 52 0 1 0 354 24
08/13/17 Video View Joyce, Matt OAK Bleier, Richard BAL 7 Oakland-Alam... JE/L 399 111.0 18.9 80.8 52 0 0 0 399 10
08/13/17 Video View Machado, Manny BAL Dull, Ryan OAK 8 Oakland-Alam... PL 372 99.8 31.1 118.4 89 0 1 0 371 30
08/13/17 Video View Olson, Matt OAK Britton, Zach BAL 8 Oakland-Alam... PL 382 100.4 31.8 66.7 99 0 1 0 381 29
08/12/17 Video View Davis, Khris OAK Bundy, Dylan BAL 1 Oakland-Alam... JE 408 100.9 31.1 87.0 115 1 -1 0 407 15
08/12/17 Video View Olson, Matt OAK Bundy, Dylan BAL 2 Oakland-Alam... ND 406 110.0 24.8 63.6 71 0 0 0 406 30
08/11/17 Video View Jones, Adam BAL Blackburn, Paul OAK 2 Oakland-Alam... PL 405 109.9 23.6 112.5 67 0 0 0 405 30
08/11/17 Video View Olson, Matt OAK Jimenez, Ubaldo BAL 4 Oakland-Alam... JE 409 101.9 31.3 89.2 121 -3 -1 0 413 25
08/10/17 Video View Jones, Adam BAL Smith, Chris OAK 4 Oakland-Alam... PL 412 105.4 27.6 106.5 91 0 -1 0 413 30
08/10/17 Video View Mancini, Trey BAL Smith, Chris OAK 4 Oakland-Alam... JE 380 99.5 29.9 70.6 91 0 -1 0 381 28
08/10/17 Video View Mancini, Trey BAL Smith, Chris OAK 6 Oakland-Alam... ND 444 114.6 26.2 112.8 90 0 -1 0 446 30
08/10/17 Video View Trumbo, Mark BAL Smith, Chris OAK 6 Oakland-Alam... PL 407 103.6 27.7 104.3 92 0 -1 0 407 30
08/09/17 Video View Seager, Kyle SEA Cotton, Jharel OAK 1 Oakland-Alam... PL 415 106.9 23.8 78.6 75 0 -1 0 415 29
08/09/17 Video View Joyce, Matt OAK Gallardo, Yovani SEA 1 Oakland-Alam... JE 411 102.4 25.1 87.3 83 0 -1 0 411 17
08/09/17 Video View Cruz, Nelson SEA Cotton, Jharel OAK 3 Oakland-Alam... ND 453 115.4 25.3 109.4 90 0 -1 0 453 30
08/09/17 Video View Davis, Khris OAK Gallardo, Yovani SEA 3 Oakland-Alam... JE 403 104.9 21.9 83.9 66 0 0 0 403 13
08/09/17 Video View Cruz, Nelson SEA Cotton, Jharel OAK 5 Oakland-Alam... PL 427 111.8 18.7 91.8 59 0 0 0 428 26
08/08/17 Video View Davis, Khris OAK Miranda, Ariel SEA 1 Oakland-Alam... JE 343 95.9 37.6 63.7 118 2 -2 0 342 19
08/08/17 Video View Healy, Ryon OAK Miranda, Ariel SEA 5 Oakland-Alam... JE 399 99.2 30.4 95.1 106 1 0 0 398 4
08/08/17 Video View Martin, Leonys SEA Smith, Josh OAK 10 Oakland-Alam... PL 389 102.5 34.6 73.6 130 1 -3 0 391 30
08/01/17 Video View Hundley, Nick SF Manaea, Sean OAK 1 Oakland-Alam... JE 396 99.2 29.5 97.1 100 0 0 0 396 10
08/01/17 Video View Belt, Brandon SF Brady, Michael OAK 4 Oakland-Alam... PL 379 102.4 34.2 60.6 111 0 -1 0 380 30
08/01/17 Video View Joyce, Matt OAK Samardzija, Jeff SF 5 Oakland-Alam... PL 410 107.0 25.9 70.7 80 0 -1 0 411 30
08/01/17 Video View Pence, Hunter SF Brady, Michael OAK 6 Oakland-Alam... JE 370 97.0 34.2 75.9 115 0 -1 0 371 11
07/31/17 Video View Semien, Marcus OAK Kontos, George SF 6 Oakland-Alam... JE 404 100.8 27.2 95.4 91 0 -1 0 405 17
07/30/17 Video View Dozier, Brian MIN Cotton, Jharel OAK 1 Oakland-Alam... PL 419 103.4 29.5 97.3 109 0 0 0 419 29
07/30/17 Video View Escobar, Eduardo MIN Cotton, Jharel OAK 1 Oakland-Alam... PL 405 103.5 25.1 79.2 78 0 0 0 405 27
07/30/17 Video View Brugman, Jaycob OAK Colon, Bartolo MIN 5 Oakland-Alam... JE/L 387 98.8 33.5 82.2 120 0 1 0 388 9
07/30/17 Video View Alonso, Yonder OAK Duffey, Tyler MIN 12 Oakland-Alam... PL 408 106.5 26.5 69.2 81 0 0 0 407 30
07/29/17 Video View Sano, Miguel MIN Smith, Chris OAK 5 Oakland-Alam... JE 359 97.7 28.9 64.0 76 0 -1 0 360 22
07/29/17 Video View Chapman, Matt OAK Boshers, Buddy MIN 8 Oakland-Alam... ND 420 107.6 32.2 105.7 129 0 -3 0 423 30
07/29/17 Video View Davis, Rajai OAK Rogers, Taylor MIN 9 Oakland-Alam... JE 406 104.8 22.1 95.2 68 0 0 0 406 14
07/19/17 Video View Joyce, Matt OAK Whitley, Chase TB 8 Oakland-Alam... ND 399 104.3 32.0 65.1 107 0 2 0 397 30
07/18/17 Video View Davis, Khris OAK Snell, Blake TB 1 Oakland-Alam... PL 431 104.7 28.9 92.3 111 0 0 0 431 30
07/18/17 Video View Souza Jr., Steven TB Smith, Chris OAK 3 Oakland-Alam... JE 402 112.3 20.3 105.7 55 0 0 0 402 30
07/17/17 Video View Souza Jr., Steven TB Gossett, Daniel OAK 2 Oakland-Alam... JE 393 109.1 21.4 106.8 57 0 0 0 393 25
07/17/17 Video View Davis, Khris OAK Odorizzi, Jake TB 4 Oakland-Alam... PL 408 105.3 22.3 83.6 69 0 0 0 408 15
07/17/17 Video View Longoria, Evan TB Gossett, Daniel OAK 5 Oakland-Alam... PL 367 99.0 33.4 118.7 100 0 1 0 367 30
07/16/17 Video View Lowrie, Jed OAK Otero, Dan CLE 3 Oakland-Alam... PL 403 101.1 28.4 78.6 92 0 2 0 401 27
07/16/17 Video View Almonte, Abraham CLE Castro, Simon OAK 9 Oakland-Alam... ND 467 113.7 26.5 77.0 103 1 4 0 462 30
07/15/17 Video View Chapman, Matt OAK Kluber, Corey CLE 3 Oakland-Alam... JE 406 104.1 22.7 95.5 69 0 0 0 406 13
07/15/17 Video View Encarnacion, Edwin CLE Blackburn, Paul OAK 4 Oakland-Alam... PL 365 103.6 38.7 114.6 147 0 4 0 362 30
07/15/17 Video View Chapman, Matt OAK Kluber, Corey CLE 8 Oakland-Alam... ND 457 111.2 22.9 89.3 86 0 0 0 457 30
07/15/17 Video View Davis, Khris OAK Shaw, Bryan CLE 9 Oakland-Alam... JE 398 106.0 22.1 78.8 63 0 0 0 398 21
07/14/17 Video View Davis, Rajai OAK Carrasco, Carlos CLE 5 Oakland-Alam... PL 405 106.1 23.8 103.8 72 0 0 0 405 30
07/14/17 Video View Alonso, Yonder OAK Carrasco, Carlos CLE 5 Oakland-Alam... JE 401 100.5 28.1 82.8 94 0 -1 0 402 17
07/05/17 Video View Brugman, Jaycob OAK Pelfrey, Mike CHW 4 Oakland-Alam... JE 398 101.1 25.0 83.6 77 0 0 0 398 10
07/05/17 Video View Davidson, Matt CHW Gray, Sonny OAK 5 Oakland-Alam... PL 421 107.3 21.0 89.4 67 0 0 0 421 24
07/05/17 Video View Frazier, Todd CHW Doolittle, Sean OAK 9 Oakland-Alam... PL 391 102.8 32.4 116.8 104 2 2 0 388 30
07/04/17 Video View Cabrera, Melky CHW Gossett, Daniel OAK 3 Oakland-Alam... JE 388 98.9 28.1 79.0 88 0 0 0 388 14
07/04/17 Video View Joyce, Matt OAK Shields, James CHW 3 Oakland-Alam... JE 410 102.2 25.0 91.9 82 0 0 0 410 12
07/04/17 Video View Alonso, Yonder OAK Shields, James CHW 4 Oakland-Alam... JE 355 103.4 37.8 69.5 149 -16 0 0 370 29
07/04/17 Video View Abreu, Jose CHW Gossett, Daniel OAK 5 Oakland-Alam... JE 365 109.0 21.4 121.6 49 0 0 0 365 16
07/04/17 Video View Alonso, Yonder OAK Shields, James CHW 5 Oakland-Alam... JE 379 97.5 32.5 77.5 108 0 0 0 379 10
07/04/17 Video View Barreto, Franklin OAK Kahnle, Tommy CHW 9 Oakland-Alam... JE 356 102.3 38.8 113.0 147 -2 0 0 358 23
07/02/17 Video View Suzuki, Kurt ATL Manaea, Sean OAK 2 Oakland-Alam... PL 406 103.9 27.0 105.2 86 0 0 0 405 30
07/02/17 Video View Davis, Khris OAK Teheran, Julio ATL 7 Oakland-Alam... JE/L 405 100.6 35.4 88.6 137 14 -1 0 392 0
07/02/17 Video View Suzuki, Kurt ATL Axford, John OAK 12 Oakland-Alam... PL 409 104.5 25.4 101.9 81 0 -1 0 409 30
07/01/17 Video View Davis, Khris OAK Vizcaino, Arodys ATL 8 Oakland-Alam... ND 459 110.1 26.4 94.5 106 0 1 0 458 30
06/30/17 Video View Olson, Matt OAK Foltynewicz, Mike ATL 9 Oakland-Alam... PL 402 103.3 31.0 73.1 109 0 -2 0 404 30
06/22/17 Video View Marisnick, Jake HOU Hahn, Jesse OAK 2 Oakland-Alam... PL 401 103.8 34.8 100.1 141 -4 4 0 402 28
06/22/17 Video View Gonzalez, Marwin HOU Hahn, Jesse OAK 2 Oakland-Alam... PL 390 103.7 34.4 68.6 125 -5 3 0 391 30
06/22/17 Video View Reddick, Josh HOU Brady, Michael OAK 6 Oakland-Alam... PL 410 104.4 26.0 77.2 83 0 1 0 409 29
06/21/17 Video View Correa, Carlos HOU Smith, Josh OAK 9 Oakland-Alam... JE 410 101.1 28.0 88.0 97 0 0 0 410 19
06/20/17 Video View Springer, George HOU Gray, Sonny OAK 1 Oakland-Alam... ND 421 105.6 32.9 102.2 131 4 1 0 416 30
06/20/17 Video View Pinder, Chad OAK Martes, Francis HOU 3 Oakland-Alam... ND 446 109.0 26.9 98.6 104 0 0 0 447 30
06/20/17 Video View Beltran, Carlos HOU Brady, Michael OAK 9 Oakland-Alam... PL 388 103.4 34.2 69.1 125 -2 -2 0 391 30
06/19/17 Video View Marisnick, Jake HOU Gossett, Daniel OAK 5 Oakland-Alam... PL 440 107.6 24.2 91.6 88 0 0 0 440 30
06/19/17 Video View Springer, George HOU Axford, John OAK 8 Oakland-Alam... JE 392 98.8 31.1 81.0 106 0 0 0 392 14
06/19/17 Video View Fisher, Derek HOU Smith, Josh OAK 9 Oakland-Alam... PL 393 103.6 33.5 67.8 118 0 -1 0 394 30
06/18/17 Video View Davis, Khris OAK Cessa, Luis NYY 3 Oakland-Alam... PL 439 106.7 25.6 93.8 92 0 2 0 437 30
06/18/17 Video View Gregorius, Didi NYY Cotton, Jharel OAK 4 Oakland-Alam... PL 374 101.2 35.3 60.3 114 0 3 0 371 30
06/18/17 Video View Holliday, Matt NYY Cotton, Jharel OAK 2 Oakland-Alam... ND 436 106.0 30.7 97.7 122 2 3 0 431 30
06/17/17 Video View Joyce, Matt OAK Tanaka, Masahiro NYY 1 Oakland-Alam... PL 407 102.9 27.6 77.3 90 0 1 0 406 29
06/17/17 Video View Healy, Ryon OAK Tanaka, Masahiro NYY 2 Oakland-Alam... PL 407 105.2 24.1 102.3 73 0 1 0 406 30
06/17/17 Video View Healy, Ryon OAK Tanaka, Masahiro NYY 4 Oakland-Alam... ND 438 106.8 30.1 101.3 116 5 3 0 431 30
06/16/17 Video View Judge, Aaron NYY Manaea, Sean OAK 3 Oakland-Alam... PL 374 99.8 30.6 63.8 88 0 1 0 374 29
06/16/17 Video View Carter, Chris NYY Manaea, Sean OAK 6 Oakland-Alam... ND 447 108.3 25.1 89.4 95 0 0 0 448 30
06/15/17 Video View Lowrie, Jed OAK Montgomery, Jordan NYY 1 Oakland-Alam... PL 402 102.1 28.0 103.2 91 0 0 0 402 30
06/15/17 Video View Alonso, Yonder OAK Montgomery, Jordan NYY 6 Oakland-Alam... JE 405 101.2 32.8 89.2 126 0 0 0 405 15
06/15/17 Video View Carter, Chris NYY Axford, John OAK 8 Oakland-Alam... PL 392 99.7 31.5 101.5 109 0 0 0 393 27
06/07/17 Video View Smoak, Justin TOR Cotton, Jharel OAK 2 Oakland-Alam... PL 405 102.2 27.3 100.8 89 0 0 0 405 30
06/07/17 Video View Pillar, Kevin TOR Cotton, Jharel OAK 2 Oakland-Alam... JE 390 102.3 24.0 101.2 69 0 0 0 390 9
06/07/17 Video View Plouffe, Trevor OAK Liriano, Francisco TOR 4 Oakland-Alam... PL 410 107.8 25.3 110.0 76 0 0 0 409 30
06/07/17 Video View Donaldson, Josh TOR Montas, Frankie OAK 10 Oakland-Alam... JE 393 100.2 35.2 98.3 133 5 0 0 387 5
06/07/17 Video View Smoak, Justin TOR Montas, Frankie OAK 10 Oakland-Alam... PL 413 104.7 23.0 85.5 73 0 0 0 413 18
06/05/17 Video View Healy, Ryon OAK Happ, J.A. TOR 2 Oakland-Alam... PL 420 107.2 23.6 100.0 76 0 0 0 420 30
06/05/17 Video View Healy, Ryon OAK Happ, J.A. TOR 4 Oakland-Alam... PL 415 102.5 29.8 96.7 109 0 0 0 415 29
06/05/17 Video View Smoak, Justin TOR Hendriks, Liam OAK 8 Oakland-Alam... PL 399 101.1 28.9 101.6 97 0 -1 0 400 30
06/04/17 Video View Davis, Khris OAK Roark, Tanner WSH 7 Oakland-Alam... PL 377 104.5 27.1 125.6 70 0 1 0 376 30
06/04/17 Video View Zimmerman, Ryan WSH Madson, Ryan OAK 8 Oakland-Alam... PL 352 98.7 28.1 124.8 68 0 0 0 352 28
06/04/17 Video View Wieters, Matt WSH Montas, Frankie OAK 9 Oakland-Alam... ND 433 110.8 23.1 78.1 75 0 0 0 433 29
06/04/17 Video View Taylor, Michael WSH Montas, Frankie OAK 9 Oakland-Alam... JE 368 101.1 26.6 117.0 68 0 0 0 367 24
06/04/17 Video View Joyce, Matt OAK Kelley, Shawn WSH 9 Oakland-Alam... PL 372 102.2 26.2 62.6 68 0 0 0 371 27
06/03/17 Video View Lowrie, Jed OAK Ross, Joe WSH 1 Oakland-Alam... PL 392 100.2 30.5 75.2 100 0 1 0 391 28
06/03/17 Video View Healy, Ryon OAK Ross, Joe WSH 1 Oakland-Alam... PL 411 101.9 28.0 83.0 96 0 1 0 410 23
06/03/17 Video View Lind, Adam WSH Mengden, Daniel OAK 3 Oakland-Alam... PL 395 104.0 25.7 72.0 75 0 1 0 395 30
06/03/17 Video View Healy, Ryon OAK Turner, Jacob WSH 7 Oakland-Alam... PL 419 104.4 24.1 92.6 80 0 1 0 419 23
06/03/17 Video View Alonso, Yonder OAK Turner, Jacob WSH 7 Oakland-Alam... JE 401 102.2 25.0 98.6 77 0 0 0 401 17
06/02/17 Video View Taylor, Michael WSH Triggs, Andrew OAK 2 Oakland-Alam... JE 397 101.6 24.5 97.7 74 0 0 0 397 8
06/02/17 Video View Murphy, Daniel WSH Triggs, Andrew OAK 3 Oakland-Alam... JE 400 102.6 24.0 82.4 73 0 0 0 400 13
06/02/17 Video View Joyce, Matt OAK Strasburg, Stephen WSH 3 Oakland-Alam... PL 428 105.1 28.9 82.8 109 0 0 0 428 30
06/02/17 Video View Werth, Jayson WSH Neal, Zach OAK 6 Oakland-Alam... JE 381 102.6 24.4 107.1 67 0 0 0 381 20
06/02/17 Video View Goodwin, Brian WSH Neal, Zach OAK 7 Oakland-Alam... PL 403 100.6 27.8 83.6 93 0 -1 0 403 15
06/02/17 Video View Rendon, Anthony WSH Neal, Zach OAK 8 Oakland-Alam... PL 405 109.2 22.1 105.0 63 0 0 0 406 30
06/02/17 Video View Alonso, Yonder OAK Treinen, Blake WSH 9 Oakland-Alam... JE 406 101.3 25.3 91.2 83 0 0 0 406 3
05/24/17 Video View Davis, Khris OAK Volquez, Edinson MIA 1 Oakland-Alam... PL 381 98.1 32.5 77.3 109 0 -1 0 381 17
05/23/17 Video View Alonso, Yonder OAK Urena, Jose MIA 2 Oakland-Alam... JE 387 105.4 24.0 70.1 66 0 0 0 388 28
05/23/17 Video View Healy, Ryon OAK Urena, Jose MIA 4 Oakland-Alam... JE 410 106.1 20.6 90.0 64 0 0 0 410 2
05/23/17 Video View Bour, Justin MIA Coulombe, Daniel OAK 7 Oakland-Alam... PL 374 101.4 34.9 69.1 124 -2 -3 0 380 29
05/23/17 Video View Davis, Rajai OAK Ramos, A.J. MIA 9 Oakland-Alam... PL 362 98.3 32.3 118.9 93 0 -2 0 364 30
05/21/17 Video View Pinder, Chad OAK Rodriguez, Eduardo BOS 4 Oakland-Alam... PL 389 108.7 23.2 115.8 61 0 1 0 389 30
05/21/17 Video View Moreland, Mitch BOS Triggs, Andrew OAK 6 Oakland-Alam... ND 435 112.6 28.1 62.2 94 0 3 0 433 30
05/20/17 Video View Ramirez, Hanley BOS Manaea, Sean OAK 2 Oakland-Alam... JE 406 100.3 27.8 86.2 93 0 2 0 404 10
05/20/17 Video View Canha, Mark OAK Taylor, Ben BOS 5 Oakland-Alam... ND 454 111.4 31.0 103.8 130 1 5 0 447 30
05/20/17 Video View Davis, Khris OAK Taylor, Ben BOS 5 Oakland-Alam... PL 435 106.4 32.2 95.2 134 0 5 0 431 30
05/20/17 Video View Pinder, Chad OAK Ramirez, Noe BOS 5 Oakland-Alam... ND 483 115.6 26.0 99.1 109 0 3 0 480 30
05/20/17 Video View Lowrie, Jed OAK Ramirez, Noe BOS 6 Oakland-Alam... PL 405 104.7 33.7 69.3 123 0 5 0 399 30
05/19/17 Video View Moreland, Mitch BOS Graveman, Kendall OAK 4 Oakland-Alam... PL 387 101.8 33.3 67.9 113 0 1 0 386 30
05/19/17 Video View Canha, Mark OAK Hembree, Heath BOS 10 Oakland-Alam... PL 382 107.2 23.8 117.2 61 0 0 0 383 30
05/18/17 Video View Lowrie, Jed OAK Velazquez, Hector BOS 1 Oakland-Alam... PL 418 104.4 23.7 90.2 80 0 -1 0 418 23
05/18/17 Video View Davis, Khris OAK Velazquez, Hector BOS 1 Oakland-Alam... JE 399 100.2 29.0 82.5 99 0 -2 0 401 15
05/18/17 Video View Moreland, Mitch BOS Gray, Sonny OAK 4 Oakland-Alam... PL 412 103.9 28.3 101.9 99 0 -2 0 415 30
05/18/17 Video View Pinder, Chad OAK Velazquez, Hector BOS 4 Oakland-Alam... PL 427 105.4 28.0 97.1 106 0 -3 0 430 30
05/10/17 Video View Pinder, Chad OAK Chavez, Jesse LAA 5 Oakland-Alam... JE 376 97.4 33.4 78.9 114 -1 -1 0 378 6
05/09/17 Video View Pujols, Albert LAA Cotton, Jharel OAK 1 Oakland-Alam... ND 423 110.0 24.6 107.0 78 0 -1 0 424 30
05/09/17 Video View Alonso, Yonder OAK Meyer, Alex LAA 1 Oakland-Alam... JE 393 101.9 24.4 99.7 73 0 -1 0 393 7
05/09/17 Video View Revere, Ben LAA Cotton, Jharel OAK 2 Oakland-Alam... JE 366 99.8 27.3 64.6 72 0 -1 0 366 25
05/09/17 Video View Escobar, Yunel LAA Cotton, Jharel OAK 2 Oakland-Alam... JE 394 101.9 24.8 100.5 75 0 -1 0 394 17
05/09/17 Video View Alonso, Yonder OAK Meyer, Alex LAA 6 Oakland-Alam... JE 410 109.4 18.8 86.5 56 0 0 0 410 6
05/08/17 Video View Valbuena, Luis LAA Graveman, Kendall OAK 1 Oakland-Alam... JE 406 100.2 29.3 90.0 104 1 -1 0 406 7
05/08/17 Video View Lowrie, Jed OAK Nolasco, Ricky LAA 4 Oakland-Alam... JE 378 99.7 26.0 75.1 74 0 0 0 378 11
05/08/17 Video View Plouffe, Trevor OAK Nolasco, Ricky LAA 5 Oakland-Alam... PL 419 104.6 24.3 94.2 82 0 -1 0 419 25
05/08/17 Video View Lowrie, Jed OAK Guerra, Deolis LAA 11 Oakland-Alam... PL 405 105.6 28.1 69.1 91 0 -2 0 407 30
05/07/17 Video View Alonso, Yonder OAK Norris, Daniel DET 4 Oakland-Alam... JE 373 97.1 32.5 73.3 103 0 1 0 372 17
05/07/17 Video View Mccann, James DET Dull, Ryan OAK 6 Oakland-Alam... ND 430 111.7 25.5 111.2 82 0 1 0 430 30
05/07/17 Video View Healy, Ryon OAK Rodriguez, Francisco DET 9 Oakland-Alam... PL 379 100.1 35.4 105.4 128 -1 1 0 378 25
05/06/17 Video View Healy, Ryon OAK Zimmermann, Jordan DET 2 Oakland-Alam... ND 392 107.4 26.4 122.2 72 0 -1 0 393 30
05/06/17 Video View Alonso, Yonder OAK Zimmermann, Jordan DET 4 Oakland-Alam... ND 419 106.0 26.0 77.6 87 0 -1 0 420 29
05/06/17 Video View Alonso, Yonder OAK Zimmermann, Jordan DET 6 Oakland-Alam... JE 387 108.6 20.7 75.2 55 0 -1 0 388 16
04/23/17 Video View Motter, Taylor SEA Triggs, Andrew OAK 3 Oakland-Alam... JE 389 100.7 25.2 100.7 75 0 0 0 389 9
04/23/17 Video View Cruz, Nelson SEA Alcantara, Raul OAK 7 Oakland-Alam... ND 415 111.7 24.3 115.0 71 0 0 0 415 30
04/22/17 Video View Cano, Robinson SEA Cotton, Jharel OAK 1 Oakland-Alam... JE 408 102.9 23.6 91.4 75 0 0 0 408 4
04/22/17 Video View Rosales, Adam OAK Miranda, Ariel SEA 1 Oakland-Alam... JE 395 99.7 27.0 97.4 86 0 0 0 395 8
04/22/17 Video View Healy, Ryon OAK Miranda, Ariel SEA 1 Oakland-Alam... JE 384 101.8 25.2 106.0 71 0 0 0 384 24
04/21/17 Video View Plouffe, Trevor OAK Iwakuma, Hisashi SEA 5 Oakland-Alam... JE 400 99.6 29.5 94.2 102 0 -1 0 401 8
04/21/17 Video View Alonso, Yonder OAK Iwakuma, Hisashi SEA 6 Oakland-Alam... PL 403 100.4 30.5 84.3 109 0 -1 0 404 15
04/20/17 Video View Motter, Taylor SEA Montas, Frankie OAK 6 Oakland-Alam... JE 408 104.3 22.0 89.6 69 0 0 0 408 2
04/20/17 Video View Plouffe, Trevor OAK Altavilla, Dan SEA 7 Oakland-Alam... PL 398 105.7 26.7 113.5 79 0 -1 0 399 30
04/19/17 Video View Gallo, Joey TEX Hahn, Jesse OAK 5 Oakland-Alam... PL 434 105.9 25.4 88.4 92 0 0 0 434 29
04/19/17 Video View Davis, Khris OAK Hauschild, Mike TEX 5 Oakland-Alam... PL 419 103.3 27.6 83.5 98 0 1 0 418 26
04/19/17 Video View Pinder, Chad OAK Hauschild, Mike TEX 6 Oakland-Alam... JE 407 111.0 18.2 95.1 52 0 0 0 407 9
04/19/17 Video View Alonso, Yonder OAK Hauschild, Mike TEX 7 Oakland-Alam... ND 417 113.0 23.2 66.9 67 0 0 0 417 30
04/18/17 Video View Rosales, Adam OAK Darvish, Yu TEX 6 Oakland-Alam... PL 366 98.8 34.4 113.6 111 0 -3 0 369 30
04/15/17 Video View Davis, Khris OAK McCullers, Lance HOU 5 Oakland-Alam... JE 381 97.9 29.2 76.8 90 0 0 0 381 15
04/15/17 Video View Plouffe, Trevor OAK McCullers, Lance HOU 5 Oakland-Alam... ND 432 110.2 23.9 102.9 79 0 0 0 432 30
04/15/17 Video View Springer, George HOU Doolittle, Sean OAK 8 Oakland-Alam... JE 383 100.2 35.6 100.2 135 0 0 0 383 12
04/14/17 Video View Davis, Khris OAK Keuchel, Dallas HOU 2 Oakland-Alam... PL 420 108.1 20.6 93.3 66 0 0 0 420 20
04/14/17 Video View Aoki, Nori HOU Graveman, Kendall OAK 5 Oakland-Alam... PL 369 98.4 32.5 67.0 101 0 -2 0 371 29
04/14/17 Video View Plouffe, Trevor OAK Feliz, Michael HOU 9 Oakland-Alam... PL 403 107.3 23.9 107.5 70 0 -1 0 404 30
04/06/17 Video View Healy, Ryon OAK Skaggs, Tyler LAA 3 Oakland-Alam... ND 426 108.1 31.1 110.3 115 6 -3 0 422 30
04/04/17 Video View Espinosa, Danny LAA Dull, Ryan OAK 9 Oakland-Alam... JE 383 98.2 32.5 79.9 113 0 -2 0 385 14
04/04/17 Video View Lowrie, Jed OAK Shoemaker, Matt LAA 2 Oakland-Alam... PL 373 100.3 29.3 63.2 82 0 -1 0 374 29
04/04/17 Video View Healy, Ryon OAK Shoemaker, Matt LAA 1 Oakland-Alam... PL 417 105.8 22.3 93.6 72 0 0 0 417 20
04/03/17 Video View Davis, Khris OAK Ramirez, J.C. LAA 8 Oakland-Alam... PL 412 102.8 27.6 97.5 96 0 -2 0 414 29
04/03/17 Video View Davis, Khris OAK Nolasco, Ricky LAA 6 Oakland-Alam... PL 383 101.2 30.6 113.4 95 0 -2 0 385 30
04/03/17 Video View Trout, Mike LAA Graveman, Kendall OAK 3 Oakland-Alam... JE 382 108.2 22.7 115.1 58 0 -1 0 383 30
04/03/17 Video View Vogt, Stephen OAK Nolasco, Ricky LAA 2 Oakland-Alam... JE/L 378 103.3 22.8 75.4 61 0 0 0 379 4


About HitTracker | Contact Us
© 2006-2017 HitTrackerOnline